NCAR-RAP Real-Time Weather Data

Output produced by METARs form (01 October 2022  06:02 UTC)
found at http://weather.rap.ucar.edu/surface/
 
Conditions at: KSPI observed 01 October 2022  05:52 UTC
Temperature: 8.3°C (47°F)
Dewpoint: 5.6°C (42°F) [RH = 83%]
Pressure (altimeter): 30.13 inches Hg (1020.4 mb)
[Sea-level pressure: 1020.2 mb]
Winds: from the NE (40 degrees) at 6 MPH (5 knots; 2.6 m/s)
Visibility: 10 or more miles (16+ km)
Ceiling: at least 12,000 feet AGL
Clouds: sky clear below 12,000 feet AGL
Present Weather: automated observation with no human augmentation;
there may or may not be significant weather present at this time
KSPI 010552Z AUTO 04005KT 10SM CLR 08/06 A3013 RMK AO2 SLP202 T00830056 10156 20072 402170044 56003